Terminal Aerodrome Forecast
Issued by NWS

Home | Current Version | Previous Version | Text Only | Print | Product List | Glossary On
Versions: 1 2 3 4 5 6 7 8 9 10 11 12 13 14 15 16 17 18 19 20 21 22 23 24 25 26 27 28 29 30 31 32
000
FTUS46 KSGX 050520
TAFSAN
TAF
KSAN 050520Z 0506/0612 27005KT P6SM BKN027 BKN035
     FM052000 27011KT P6SM SCT035
     FM060200 VRB04KT P6SM SCT030
     FM060400 VRB03KT P6SM BKN028=

USA.gov is the U.S. government's official web portal to all federal, state and local government web resources and services.